createdAt,value
2023-05-19T00:01:09.873Z,16.10
2023-05-19T00:04:33.704Z,16.10
2023-05-19T00:07:59.777Z,16.10
2023-05-19T00:11:22.993Z,16.00
2023-05-19T00:14:45.360Z,16.00
2023-05-19T00:18:09.019Z,16.10
2023-05-19T00:21:31.963Z,16.10
2023-05-19T00:24:54.003Z,16.10
2023-05-19T00:28:16.241Z,16.20
2023-05-19T00:31:38.468Z,16.10
2023-05-19T00:35:00.673Z,16.10
2023-05-19T00:38:22.760Z,16.10
2023-05-19T00:41:44.864Z,16.10
2023-05-19T00:45:07.485Z,16.00
2023-05-19T00:48:29.647Z,16.00
2023-05-19T00:51:51.945Z,15.90
2023-05-19T00:55:14.708Z,15.80
2023-05-19T00:58:37.361Z,15.70
2023-05-19T01:01:59.470Z,15.60
2023-05-19T01:05:22.280Z,15.50
2023-05-19T01:08:44.302Z,15.50
2023-05-19T01:12:06.833Z,15.40
2023-05-19T01:15:29.435Z,15.40
2023-05-19T01:19:04.003Z,15.30
2023-05-19T01:22:56.661Z,15.30
2023-05-19T01:26:37.415Z,15.30
2023-05-19T01:30:25.947Z,15.30
2023-05-19T01:33:51.806Z,15.40
2023-05-19T01:37:15.448Z,15.50
2023-05-19T01:40:39.536Z,15.60
2023-05-19T01:44:02.317Z,15.80
2023-05-19T01:47:24.638Z,15.90
2023-05-19T01:50:47.737Z,15.90
2023-05-19T01:54:10.721Z,15.90
2023-05-19T01:57:50.549Z,15.90
2023-05-19T02:01:31.094Z,15.90
2023-05-19T02:05:03.199Z,15.90
2023-05-19T02:08:34.695Z,15.80
2023-05-19T02:12:12.377Z,15.80
2023-05-19T02:15:42.060Z,15.80
2023-05-19T02:19:04.366Z,15.80
2023-05-19T02:22:28.743Z,15.80
2023-05-19T02:25:50.863Z,15.80
2023-05-19T02:29:12.896Z,15.90
2023-05-19T02:32:36.618Z,15.80
2023-05-19T02:35:58.717Z,15.90
2023-05-19T02:39:20.739Z,15.80
2023-05-19T02:42:42.761Z,15.80
2023-05-19T02:46:04.911Z,15.70
2023-05-19T02:49:27.350Z,15.70
2023-05-19T02:52:52.857Z,15.60
2023-05-19T02:56:14.873Z,15.60
2023-05-19T02:59:37.399Z,15.50
2023-05-19T03:03:02.834Z,15.50
2023-05-19T03:06:25.107Z,15.50
2023-05-19T03:09:47.104Z,15.50
2023-05-19T03:13:09.198Z,15.40
2023-05-19T03:16:31.514Z,15.30
2023-05-19T03:19:53.647Z,15.30
2023-05-19T03:23:15.741Z,15.30
2023-05-19T03:26:37.751Z,15.20
2023-05-19T03:29:59.847Z,15.10
2023-05-19T03:33:22.571Z,15.10
2023-05-19T03:36:45.813Z,15.10
2023-05-19T03:40:11.720Z,15.10
2023-05-19T03:43:36.824Z,15.10
2023-05-19T03:47:01.112Z,15.00
2023-05-19T03:50:44.553Z,14.90
2023-05-19T03:54:14.212Z,14.90
2023-05-19T03:57:36.370Z,14.80
2023-05-19T04:00:58.414Z,14.70
2023-05-19T04:04:21.771Z,14.60
2023-05-19T04:07:45.106Z,14.50
2023-05-19T04:11:07.234Z,14.50
2023-05-19T04:14:29.270Z,14.50
2023-05-19T04:17:51.468Z,14.60
2023-05-19T04:21:13.777Z,14.60
2023-05-19T04:24:36.220Z,14.60
2023-05-19T04:27:58.938Z,14.70
2023-05-19T04:31:21.821Z,14.70
2023-05-19T04:34:46.068Z,14.70
2023-05-19T04:38:13.720Z,14.70
2023-05-19T04:41:36.543Z,14.80
2023-05-19T04:45:01.155Z,14.80
2023-05-19T04:48:26.046Z,14.80
2023-05-19T04:51:50.588Z,14.90
2023-05-19T04:55:17.307Z,14.90
2023-05-19T04:58:41.825Z,14.90
2023-05-19T05:02:04.695Z,15.00
2023-05-19T05:05:27.035Z,15.00
2023-05-19T05:08:49.491Z,15.10
2023-05-19T05:12:13.184Z,15.20
2023-05-19T05:15:36.476Z,15.30
2023-05-19T05:18:59.030Z,15.30
2023-05-19T05:22:22.167Z,15.40
2023-05-19T05:25:45.075Z,15.40
2023-05-19T05:29:10.351Z,15.50
2023-05-19T05:32:33.193Z,15.50
2023-05-19T05:35:57.609Z,15.50
2023-05-19T05:39:21.040Z,15.60
2023-05-19T05:42:43.809Z,15.70
2023-05-19T05:46:06.475Z,15.70
2023-05-19T05:49:32.806Z,15.80
2023-05-19T05:52:57.625Z,15.90
2023-05-19T05:56:23.465Z,16.10
2023-05-19T05:59:50.912Z,16.10
2023-05-19T06:03:14.668Z,16.10
2023-05-19T06:06:38.102Z,16.10
2023-05-19T06:10:02.171Z,16.20
2023-05-19T06:13:26.185Z,16.20
2023-05-19T06:16:48.417Z,16.30
2023-05-19T06:20:13.256Z,16.40
2023-05-19T06:23:35.379Z,16.60
2023-05-19T06:26:57.445Z,16.60
2023-05-19T06:30:19.735Z,16.50
2023-05-19T06:33:54.092Z,16.30
2023-05-19T06:37:19.687Z,16.30
2023-05-19T06:40:41.826Z,16.30
2023-05-19T06:44:09.700Z,16.20
2023-05-19T06:47:31.952Z,16.10
2023-05-19T06:50:54.678Z,16.10
2023-05-19T06:54:17.065Z,16.10
2023-05-19T06:57:39.184Z,16.10
2023-05-19T07:01:01.834Z,16.10
2023-05-19T07:04:33.100Z,16.20
2023-05-19T07:07:56.111Z,16.30
2023-05-19T07:13:54.059Z,16.70
2023-05-19T07:17:22.435Z,16.90
2023-05-19T07:20:44.817Z,17.20
2023-05-19T07:24:07.175Z,17.20
2023-05-19T07:27:29.843Z,17.20
2023-05-19T07:30:52.071Z,17.30
2023-05-19T07:34:14.137Z,17.10
2023-05-19T07:37:36.274Z,17.10
2023-05-19T07:40:58.352Z,17.30
2023-05-19T07:44:20.482Z,17.30
2023-05-19T07:47:42.550Z,17.20
2023-05-19T07:51:04.673Z,17.20
2023-05-19T07:54:26.893Z,17.30
2023-05-19T07:57:50.415Z,17.20
2023-05-19T08:01:12.521Z,17.20
2023-05-19T08:04:34.617Z,17.20
2023-05-19T08:07:57.522Z,17.10
2023-05-19T08:11:23.186Z,17.10
2023-05-19T08:14:45.387Z,17.10
2023-05-19T08:18:07.555Z,17.20
2023-05-19T08:21:29.806Z,17.40
2023-05-19T08:24:51.941Z,17.40
2023-05-19T08:28:14.188Z,17.50
2023-05-19T08:31:36.566Z,17.50
2023-05-19T08:34:58.643Z,17.70
2023-05-19T08:38:20.918Z,17.80
2023-05-19T08:41:42.964Z,17.70
2023-05-19T08:45:09.661Z,17.50
2023-05-19T08:48:33.596Z,17.50
2023-05-19T08:52:08.909Z,17.50
2023-05-19T08:55:34.404Z,17.60
2023-05-19T08:59:00.391Z,17.80
2023-05-19T09:02:23.620Z,17.80
2023-05-19T09:05:46.844Z,17.90
2023-05-19T09:09:09.311Z,18.00
2023-05-19T09:12:31.630Z,18.00
2023-05-19T09:15:54.025Z,18.10
2023-05-19T09:19:16.265Z,18.20
2023-05-19T09:22:43.318Z,18.20
2023-05-19T09:26:08.570Z,18.20
2023-05-19T09:29:30.628Z,18.20
2023-05-19T09:32:52.737Z,18.60
2023-05-19T09:36:14.944Z,18.60
2023-05-19T09:39:38.700Z,18.70
2023-05-19T09:43:05.356Z,18.60
2023-05-19T09:46:28.610Z,18.60
2023-05-19T09:49:52.237Z,18.50
2023-05-19T09:53:15.290Z,18.50
2023-05-19T09:56:39.600Z,18.80
2023-05-19T10:00:08.999Z,19.10
2023-05-19T10:03:36.373Z,19.70
2023-05-19T10:07:00.803Z,20.40
2023-05-19T10:10:24.059Z,21.20
2023-05-19T10:13:50.610Z,21.40
2023-05-19T10:17:13.549Z,21.50
2023-05-19T10:20:36.323Z,21.20
2023-05-19T10:23:58.395Z,20.60
2023-05-19T10:27:21.105Z,20.50
2023-05-19T10:30:49.758Z,19.80
2023-05-19T10:34:22.164Z,19.50
2023-05-19T10:37:57.314Z,19.30
2023-05-19T10:41:47.009Z,18.80
2023-05-19T10:45:21.624Z,18.60
2023-05-19T10:48:46.955Z,18.70
2023-05-19T10:52:23.178Z,18.80
2023-05-19T10:55:53.980Z,18.70
2023-05-19T10:59:39.724Z,19.00
2023-05-19T11:03:18.842Z,19.00
2023-05-19T11:06:41.354Z,18.80
2023-05-19T11:10:07.843Z,18.50
2023-05-19T11:13:29.878Z,18.20
2023-05-19T11:16:56.632Z,18.40
2023-05-19T11:20:26.999Z,18.70
2023-05-19T11:23:50.972Z,18.50
2023-05-19T11:27:21.585Z,18.50
2023-05-19T11:30:46.048Z,18.60
2023-05-19T11:34:09.175Z,18.60
2023-05-19T11:37:35.177Z,18.50
2023-05-19T11:40:57.503Z,18.20
2023-05-19T11:44:19.512Z,18.20
2023-05-19T11:47:56.389Z,18.10
2023-05-19T11:51:22.798Z,18.10
2023-05-19T11:54:48.916Z,18.00
2023-05-19T11:58:11.026Z,18.10
2023-05-19T12:01:34.472Z,18.00
2023-05-19T12:04:56.500Z,18.00
2023-05-19T12:08:18.959Z,18.00
2023-05-19T12:11:41.155Z,17.90
2023-05-19T12:15:04.083Z,17.80
2023-05-19T12:18:30.674Z,17.80
2023-05-19T12:21:53.203Z,17.40
2023-05-19T12:25:16.894Z,17.30
2023-05-19T12:28:38.949Z,17.30
2023-05-19T12:32:01.910Z,17.30
2023-05-19T12:35:33.729Z,17.50
2023-05-19T12:38:56.133Z,17.70
2023-05-19T12:42:18.445Z,18.00
2023-05-19T12:45:42.550Z,18.20
2023-05-19T12:49:05.149Z,18.20
2023-05-19T12:52:29.355Z,18.20
2023-05-19T12:55:52.903Z,18.30
2023-05-19T12:59:34.649Z,18.20
2023-05-19T13:03:05.949Z,18.20
2023-05-19T13:06:28.270Z,17.90
2023-05-19T13:09:50.299Z,17.60
2023-05-19T13:13:12.998Z,17.10
2023-05-19T13:16:35.126Z,16.80
2023-05-19T13:19:57.425Z,16.40
2023-05-19T13:23:19.779Z,16.10
2023-05-19T13:26:41.884Z,15.80
2023-05-19T13:30:05.085Z,15.80
2023-05-19T13:33:27.778Z,15.80
2023-05-19T13:36:58.891Z,15.80
2023-05-19T13:40:21.204Z,16.00
2023-05-19T13:43:43.299Z,16.10
2023-05-19T13:47:05.793Z,16.20
2023-05-19T13:50:28.326Z,16.20
2023-05-19T13:53:50.504Z,16.20
2023-05-19T13:57:12.643Z,16.20
2023-05-19T14:00:36.202Z,16.00
2023-05-19T14:03:58.623Z,15.80
2023-05-19T14:07:21.294Z,15.60
2023-05-19T14:10:43.472Z,15.60
2023-05-19T14:14:05.775Z,15.60
2023-05-19T14:17:28.761Z,15.60
2023-05-19T14:20:50.928Z,15.50
2023-05-19T14:24:12.946Z,15.60
2023-05-19T14:27:35.051Z,15.60
2023-05-19T14:30:57.327Z,15.60
2023-05-19T14:34:21.204Z,15.50
2023-05-19T14:37:43.326Z,15.60
2023-05-19T14:41:07.294Z,15.50
2023-05-19T14:44:33.113Z,15.40
2023-05-19T14:47:55.246Z,15.40
2023-05-19T14:51:17.327Z,15.20
2023-05-19T14:54:39.434Z,15.20
2023-05-19T14:58:01.578Z,15.10
2023-05-19T15:01:23.780Z,15.10
2023-05-19T15:04:45.857Z,15.10
2023-05-19T15:08:08.094Z,15.20
2023-05-19T15:11:30.221Z,15.20
2023-05-19T15:14:52.264Z,15.00
2023-05-19T15:18:17.870Z,15.10
2023-05-19T15:21:44.400Z,15.00
2023-05-19T15:25:07.190Z,14.90
2023-05-19T15:28:29.247Z,14.80
2023-05-19T15:31:51.981Z,14.70
2023-05-19T15:35:14.179Z,14.80
2023-05-19T15:38:37.000Z,14.70
2023-05-19T15:41:59.237Z,14.70
2023-05-19T15:45:21.537Z,14.70
2023-05-19T15:48:43.564Z,14.70
2023-05-19T15:52:05.853Z,14.80
2023-05-19T15:55:28.185Z,14.70
2023-05-19T15:58:50.982Z,14.70
2023-05-19T16:02:13.215Z,14.60
2023-05-19T16:05:35.350Z,14.70
2023-05-19T16:08:57.409Z,14.70
2023-05-19T16:12:19.391Z,14.70
2023-05-19T16:15:41.498Z,14.70
2023-05-19T16:19:03.604Z,14.70
2023-05-19T16:22:26.076Z,14.70
2023-05-19T16:25:48.492Z,14.70
2023-05-19T16:29:10.582Z,14.70
2023-05-19T16:32:33.764Z,14.70
2023-05-19T16:35:57.875Z,14.60
2023-05-19T16:39:19.983Z,14.60
2023-05-19T16:42:42.351Z,14.60
2023-05-19T16:46:05.442Z,14.70
2023-05-19T16:49:27.573Z,14.60
2023-05-19T16:52:50.417Z,14.70
2023-05-19T16:56:12.630Z,14.70
2023-05-19T16:59:34.604Z,14.60
2023-05-19T17:02:56.739Z,14.40
2023-05-19T17:06:18.895Z,14.50
2023-05-19T17:09:41.558Z,14.50
2023-05-19T17:13:03.883Z,14.50
2023-05-19T17:16:26.014Z,14.40
2023-05-19T17:19:48.801Z,14.30
2023-05-19T17:23:20.239Z,14.30
2023-05-19T17:26:42.240Z,14.30
2023-05-19T17:30:04.652Z,14.30
2023-05-19T17:33:26.787Z,14.30
2023-05-19T17:36:50.095Z,14.30
2023-05-19T17:40:12.758Z,14.40
2023-05-19T17:43:35.735Z,14.40
2023-05-19T17:46:59.828Z,14.40
2023-05-19T17:50:32.905Z,14.50
2023-05-19T17:53:55.587Z,14.40
2023-05-19T17:57:18.603Z,14.40
2023-05-19T18:00:40.781Z,14.40
2023-05-19T18:04:04.171Z,14.40
2023-05-19T18:07:27.986Z,14.40
2023-05-19T18:10:51.725Z,14.40
2023-05-19T18:14:13.812Z,14.50
2023-05-19T18:17:35.963Z,14.40
2023-05-19T18:20:59.342Z,14.40
2023-05-19T18:24:21.409Z,14.40
2023-05-19T18:27:44.017Z,14.40
2023-05-19T18:31:06.753Z,14.40
2023-05-19T18:34:30.657Z,14.40
2023-05-19T18:37:56.788Z,14.40
2023-05-19T18:41:18.845Z,14.40
2023-05-19T18:44:41.083Z,14.40
2023-05-19T18:48:03.345Z,14.40
2023-05-19T18:51:29.165Z,14.30
2023-05-19T18:54:51.973Z,14.30
2023-05-19T18:58:14.504Z,14.30
2023-05-19T19:01:39.886Z,14.20
2023-05-19T19:05:04.270Z,14.20
2023-05-19T19:08:30.159Z,14.20
2023-05-19T19:11:52.609Z,14.20
2023-05-19T19:15:18.520Z,14.20
2023-05-19T19:18:41.789Z,14.20
2023-05-19T19:22:15.786Z,14.20
2023-05-19T19:25:39.488Z,14.20
2023-05-19T19:29:03.172Z,14.20
2023-05-19T19:32:28.990Z,14.20
2023-05-19T19:35:59.021Z,14.20
2023-05-19T19:39:22.106Z,14.20
2023-05-19T19:42:45.237Z,14.10
2023-05-19T19:46:09.208Z,14.10
2023-05-19T19:49:31.422Z,14.10
2023-05-19T19:52:53.465Z,14.20
2023-05-19T19:56:15.583Z,14.20
2023-05-19T19:59:45.453Z,14.20
2023-05-19T20:03:07.929Z,14.20
2023-05-19T20:06:31.452Z,14.10
2023-05-19T20:09:55.910Z,14.20
2023-05-19T20:13:18.193Z,14.10
2023-05-19T20:16:41.161Z,14.10
2023-05-19T20:20:08.161Z,14.10
2023-05-19T20:23:30.655Z,14.20
2023-05-19T20:26:52.848Z,14.10
2023-05-19T20:30:14.914Z,14.20
2023-05-19T20:33:37.691Z,14.10
2023-05-19T20:37:00.132Z,14.10
2023-05-19T20:40:28.843Z,14.10
2023-05-19T20:43:54.160Z,14.10
2023-05-19T20:47:19.269Z,14.10
2023-05-19T20:50:42.432Z,14.00
2023-05-19T20:54:05.475Z,14.00
2023-05-19T20:57:28.930Z,14.00
2023-05-19T21:00:57.546Z,14.00
2023-05-19T21:04:20.515Z,14.00
2023-05-19T21:07:43.358Z,14.00
2023-05-19T21:11:05.824Z,14.00
2023-05-19T21:14:28.237Z,14.00
2023-05-19T21:17:50.854Z,14.00
2023-05-19T21:21:13.110Z,14.00
2023-05-19T21:24:35.701Z,14.00
2023-05-19T21:28:01.510Z,14.00
2023-05-19T21:31:23.975Z,14.00
2023-05-19T21:34:46.858Z,14.00
2023-05-19T21:38:22.785Z,14.00
2023-05-19T21:41:49.890Z,13.90
2023-05-19T21:45:12.394Z,13.90
2023-05-19T21:48:47.335Z,13.90
2023-05-19T21:52:10.820Z,13.90
2023-05-19T21:55:33.259Z,13.90
2023-05-19T21:58:56.642Z,13.90
2023-05-19T22:02:18.937Z,13.90
2023-05-19T22:05:42.126Z,13.90
2023-05-19T22:09:04.467Z,13.90
2023-05-19T22:12:26.516Z,13.90
2023-05-19T22:15:48.546Z,13.90
2023-05-19T22:19:11.563Z,13.80
2023-05-19T22:22:33.858Z,13.80
2023-05-19T22:25:56.046Z,13.80
2023-05-19T22:29:18.720Z,13.80
2023-05-19T22:32:40.787Z,13.80
2023-05-19T22:36:02.941Z,13.80
2023-05-19T22:39:24.947Z,13.80
2023-05-19T22:42:47.083Z,13.80
2023-05-19T22:46:09.314Z,13.80
2023-05-19T22:49:31.527Z,13.90
2023-05-19T22:52:53.701Z,13.80
2023-05-19T22:56:16.563Z,13.80
2023-05-19T22:59:38.717Z,13.80
2023-05-19T23:03:00.797Z,13.80
2023-05-19T23:06:23.026Z,13.80
2023-05-19T23:09:45.157Z,13.80
2023-05-19T23:13:08.231Z,13.80
2023-05-19T23:16:30.590Z,13.80
2023-05-19T23:19:52.830Z,13.80
2023-05-19T23:23:14.899Z,13.80
2023-05-19T23:26:36.945Z,13.80
2023-05-19T23:29:58.965Z,13.70
2023-05-19T23:33:21.100Z,13.70
2023-05-19T23:36:43.108Z,13.60
2023-05-19T23:40:06.426Z,13.60
2023-05-19T23:43:28.747Z,13.60
2023-05-19T23:46:50.837Z,13.60
2023-05-19T23:50:12.908Z,13.50
2023-05-19T23:53:35.366Z,13.60
2023-05-19T23:56:58.601Z,13.50
